createdAt,value
2023-03-17T00:02:26.738Z,-3.45
2023-03-17T00:05:33.296Z,-3.45
2023-03-17T00:08:36.566Z,-3.38
2023-03-17T00:11:39.656Z,-3.49
2023-03-17T00:14:44.554Z,-3.53
2023-03-17T00:17:49.718Z,-3.72
2023-03-17T00:20:52.808Z,-3.90
2023-03-17T00:23:56.386Z,-3.80
2023-03-17T00:26:59.766Z,-3.87
2023-03-17T00:30:02.978Z,-4.02
2023-03-17T00:33:06.359Z,-4.08
2023-03-17T00:36:13.641Z,-3.93
2023-03-17T00:39:17.116Z,-3.83
2023-03-17T00:42:20.165Z,-3.78
2023-03-17T00:45:27.190Z,-3.75
2023-03-17T00:48:31.000Z,-3.99
2023-03-17T00:51:33.896Z,-3.83
2023-03-17T00:54:37.287Z,-3.85
2023-03-17T00:57:41.535Z,-3.89
2023-03-17T01:00:45.636Z,-3.97
2023-03-17T01:03:48.563Z,-3.90
2023-03-17T01:06:53.025Z,-3.77
2023-03-17T01:09:56.023Z,-3.75
2023-03-17T01:12:59.846Z,-3.77
2023-03-17T01:16:02.749Z,-3.76
2023-03-17T01:19:06.060Z,-3.96
2023-03-17T01:22:09.096Z,-4.01
2023-03-17T01:25:12.580Z,-3.92
2023-03-17T01:28:18.623Z,-3.98
2023-03-17T01:31:23.108Z,-4.06
2023-03-17T01:34:25.888Z,-4.27
2023-03-17T01:37:29.011Z,-4.45
2023-03-17T01:40:34.802Z,-4.55
2023-03-17T01:43:38.499Z,-4.30
2023-03-17T01:46:41.269Z,-4.34
2023-03-17T01:49:45.974Z,-4.50
2023-03-17T01:52:49.044Z,-4.35
2023-03-17T01:55:53.494Z,-4.30
2023-03-17T01:58:59.491Z,-4.35
2023-03-17T02:02:07.494Z,-4.33
2023-03-17T02:05:13.266Z,-4.30
2023-03-17T02:08:16.626Z,-4.34
2023-03-17T02:11:21.239Z,-4.44
2023-03-17T02:14:24.454Z,-4.50
2023-03-17T02:17:29.455Z,-4.46
2023-03-17T02:20:32.775Z,-4.44
2023-03-17T02:23:36.752Z,-4.35
2023-03-17T02:26:43.821Z,-4.30
2023-03-17T02:29:47.389Z,-4.53
2023-03-17T02:32:51.027Z,-4.37
2023-03-17T02:35:58.137Z,-4.19
2023-03-17T02:39:01.121Z,-4.75
2023-03-17T02:42:06.770Z,-4.75
2023-03-17T02:45:11.973Z,-4.58
2023-03-17T02:48:15.826Z,-4.73
2023-03-17T02:51:18.616Z,-4.70
2023-03-17T02:54:21.904Z,-4.69
2023-03-17T02:57:24.735Z,-4.80
2023-03-17T03:00:30.142Z,-4.99
2023-03-17T03:03:33.051Z,-4.86
2023-03-17T03:06:36.831Z,-4.71
2023-03-17T03:09:39.827Z,-4.71
2023-03-17T03:12:42.965Z,-4.89
2023-03-17T03:15:45.843Z,-4.91
2023-03-17T03:18:48.992Z,-4.83
2023-03-17T03:21:51.941Z,-4.95
2023-03-17T03:24:55.279Z,-4.90
2023-03-17T03:27:58.223Z,-4.80
2023-03-17T03:31:02.197Z,-4.83
2023-03-17T03:34:05.083Z,-4.93
2023-03-17T03:37:10.620Z,-4.78
2023-03-17T03:40:13.710Z,-4.77
2023-03-17T03:43:23.415Z,-4.78
2023-03-17T03:46:27.059Z,-4.90
2023-03-17T03:49:30.133Z,-4.80
2023-03-17T03:52:32.972Z,-4.77
2023-03-17T03:55:36.172Z,-4.72
2023-03-17T03:58:39.297Z,-4.79
2023-03-17T04:01:42.734Z,-4.79
2023-03-17T04:04:47.162Z,-4.78
2023-03-17T04:07:49.930Z,-4.79
2023-03-17T04:10:53.143Z,-4.82
2023-03-17T04:13:56.013Z,-5.06
2023-03-17T04:16:59.517Z,-5.17
2023-03-17T04:20:02.869Z,-5.15
2023-03-17T04:23:06.190Z,-5.02
2023-03-17T04:26:09.372Z,-4.86
2023-03-17T04:29:15.714Z,-4.85
2023-03-17T04:32:18.721Z,-4.90
2023-03-17T04:35:24.972Z,-4.97
2023-03-17T04:38:27.817Z,-4.82
2023-03-17T04:41:31.237Z,-4.81
2023-03-17T04:44:34.268Z,-4.86
2023-03-17T04:47:37.553Z,-4.99
2023-03-17T04:50:40.426Z,-5.01
2023-03-17T04:54:00.664Z,-4.91
2023-03-17T04:57:03.589Z,-4.87
2023-03-17T05:00:08.407Z,-4.81
2023-03-17T05:03:26.022Z,-4.77
2023-03-17T05:06:30.892Z,-4.77
2023-03-17T05:09:33.739Z,-4.64
2023-03-17T05:12:37.025Z,-4.55
2023-03-17T05:15:41.096Z,-4.80
2023-03-17T05:18:44.835Z,-4.65
2023-03-17T05:21:47.700Z,-4.53
2023-03-17T05:24:50.805Z,-4.37
2023-03-17T05:27:53.551Z,-4.16
2023-03-17T05:30:56.887Z,-4.11
2023-03-17T05:34:02.515Z,-4.01
2023-03-17T05:37:06.082Z,-4.14
2023-03-17T05:40:10.331Z,-3.72
2023-03-17T05:43:14.125Z,-3.62
2023-03-17T05:46:19.797Z,-3.26
2023-03-17T05:49:24.553Z,-2.76
2023-03-17T05:52:28.177Z,-2.44
2023-03-17T05:55:35.856Z,-1.85
2023-03-17T05:58:38.677Z,-1.49
2023-03-17T06:01:41.792Z,-1.15
2023-03-17T06:05:08.949Z,-0.74
2023-03-17T06:08:13.155Z,0.40
2023-03-17T06:11:18.226Z,0.66
2023-03-17T06:14:21.725Z,0.93
2023-03-17T06:17:26.712Z,1.89
2023-03-17T06:20:29.712Z,2.38
2023-03-17T06:24:12.687Z,2.61
2023-03-17T06:27:38.197Z,3.78
2023-03-17T06:31:22.425Z,5.13
2023-03-17T06:35:07.381Z,6.21
2023-03-17T06:38:30.856Z,6.64
2023-03-17T06:41:54.367Z,7.04
2023-03-17T06:45:46.964Z,6.43
2023-03-17T06:48:55.531Z,7.89
2023-03-17T06:51:58.923Z,7.94
2023-03-17T06:55:12.198Z,6.88
2023-03-17T06:58:36.343Z,5.76
2023-03-17T07:01:44.298Z,7.78
2023-03-17T07:05:06.504Z,6.82
2023-03-17T07:08:31.418Z,6.60
2023-03-17T07:11:52.655Z,5.91
2023-03-17T07:15:17.273Z,5.55
2023-03-17T07:18:41.379Z,6.51
2023-03-17T07:22:23.897Z,6.29
2023-03-17T07:25:49.876Z,6.56
2023-03-17T07:29:12.566Z,6.74
2023-03-17T07:32:57.524Z,6.72
2023-03-17T07:36:20.142Z,8.58
2023-03-17T07:39:48.312Z,7.32
2023-03-17T07:43:11.804Z,6.00
2023-03-17T07:46:55.374Z,7.81
2023-03-17T07:50:18.713Z,8.98
2023-03-17T07:54:05.923Z,7.38
2023-03-17T07:57:11.578Z,8.04
2023-03-17T08:00:35.397Z,7.47
2023-03-17T08:03:59.370Z,8.51
2023-03-17T08:40:36.858Z,7.90
2023-03-17T08:43:47.922Z,7.95
2023-03-17T08:47:10.968Z,7.75
2023-03-17T08:50:35.540Z,8.31
2023-03-17T08:53:59.861Z,7.84
2023-03-17T08:57:44.795Z,8.53
2023-03-17T09:01:06.929Z,9.10
2023-03-17T09:04:30.473Z,8.21
2023-03-17T09:07:50.332Z,8.14
2023-03-17T09:11:05.966Z,8.91
2023-03-17T09:14:30.564Z,8.45
2023-03-17T09:17:43.434Z,9.40
2023-03-17T09:21:06.523Z,9.15
2023-03-17T09:24:15.422Z,9.16
2023-03-17T09:27:51.399Z,9.74
2023-03-17T09:31:11.486Z,9.42
2023-03-17T09:34:31.850Z,9.41
2023-03-17T09:49:42.678Z,10.38
2023-03-17T09:52:58.546Z,10.38
2023-03-17T09:56:23.401Z,9.50
2023-03-17T09:59:50.660Z,9.64
2023-03-17T10:02:54.340Z,9.16
2023-03-17T10:06:28.256Z,10.18
2023-03-17T10:09:54.300Z,9.77
2023-03-17T10:13:47.061Z,9.19
2023-03-17T10:17:09.402Z,10.25
2023-03-17T10:20:36.550Z,10.81
2023-03-17T10:23:59.800Z,10.57
2023-03-17T10:27:23.486Z,10.24
2023-03-17T10:30:46.514Z,10.11
2023-03-17T10:34:13.256Z,10.20
2023-03-17T10:37:36.766Z,9.70
2023-03-17T10:40:56.540Z,9.49
2023-03-17T10:44:42.167Z,9.89
2023-03-17T10:48:10.795Z,9.78
2023-03-17T10:51:55.674Z,10.05
2023-03-17T10:55:26.654Z,9.65
2023-03-17T10:59:25.898Z,10.06
2023-03-17T11:03:00.057Z,9.74
2023-03-17T11:06:14.576Z,9.79
2023-03-17T11:09:37.102Z,9.30
2023-03-17T11:12:50.273Z,9.39
2023-03-17T11:16:22.602Z,9.83
2023-03-17T11:19:58.189Z,9.38
2023-03-17T11:23:42.762Z,9.43
2023-03-17T11:27:12.661Z,9.55
2023-03-17T11:30:38.628Z,9.76
2023-03-17T11:33:47.635Z,9.70
2023-03-17T11:37:16.992Z,9.56
2023-03-17T11:41:09.329Z,9.49
2023-03-17T11:44:53.792Z,9.47
2023-03-17T11:48:44.653Z,9.48
2023-03-17T11:51:54.744Z,9.80
2023-03-17T11:55:25.034Z,9.52
2023-03-17T11:59:00.657Z,9.99
2023-03-17T12:02:19.504Z,10.01
2023-03-17T12:05:28.600Z,9.15
2023-03-17T12:09:07.887Z,9.93
2023-03-17T12:12:16.034Z,10.19
2023-03-17T12:15:36.594Z,9.27
2023-03-17T12:19:36.976Z,9.57
2023-03-17T12:23:04.488Z,9.95
2023-03-17T12:26:18.511Z,10.21
2023-03-17T12:29:26.434Z,10.02
2023-03-17T12:32:39.638Z,9.94
2023-03-17T12:36:05.334Z,9.77
2023-03-17T12:39:33.255Z,9.48
2023-03-17T12:43:01.736Z,9.82
2023-03-17T12:46:44.693Z,9.58
2023-03-17T12:50:12.500Z,9.50
2023-03-17T12:53:36.991Z,9.92
2023-03-17T12:56:46.577Z,10.39
2023-03-17T12:59:59.974Z,10.02
2023-03-17T13:03:22.138Z,10.15
2023-03-17T13:06:29.662Z,9.94
2023-03-17T13:09:32.649Z,9.72
2023-03-17T13:13:06.701Z,10.20
2023-03-17T13:16:34.998Z,9.85
2023-03-17T13:19:56.156Z,10.07
2023-03-17T13:23:36.023Z,9.56
2023-03-17T13:26:53.677Z,9.89
2023-03-17T13:29:59.629Z,9.90
2023-03-17T13:33:24.161Z,9.93
2023-03-17T13:36:54.537Z,10.23
2023-03-17T13:40:18.527Z,10.17
2023-03-17T13:43:50.238Z,10.10
2023-03-17T13:46:55.449Z,10.22
2023-03-17T13:50:14.880Z,10.09
2023-03-17T13:54:26.524Z,10.01
2023-03-17T13:58:11.843Z,10.23
2023-03-17T14:01:16.018Z,10.77
2023-03-17T14:04:45.309Z,10.02
2023-03-17T14:08:01.354Z,9.95
2023-03-17T14:11:40.846Z,10.13
2023-03-17T14:14:56.552Z,9.62
2023-03-17T14:18:23.117Z,10.19
2023-03-17T14:21:31.709Z,9.87
2023-03-17T14:24:35.001Z,10.19
2023-03-17T14:27:39.331Z,10.18
2023-03-17T14:31:25.077Z,10.10
2023-03-17T14:34:30.524Z,9.88
2023-03-17T14:37:33.750Z,10.07
2023-03-17T14:40:40.651Z,9.97
2023-03-17T14:43:45.311Z,9.87
2023-03-17T14:46:49.083Z,9.74
2023-03-17T14:50:26.285Z,9.73
2023-03-17T14:53:29.894Z,9.89
2023-03-17T14:56:42.439Z,9.79
2023-03-17T15:00:32.119Z,10.17
2023-03-17T15:03:58.532Z,10.15
2023-03-17T15:07:04.924Z,10.45
2023-03-17T15:10:20.523Z,9.86
2023-03-17T15:13:43.532Z,10.05
2023-03-17T15:17:03.433Z,9.80
2023-03-17T15:20:19.988Z,9.80
2023-03-17T15:23:29.648Z,9.74
2023-03-17T15:26:41.236Z,10.12
2023-03-17T15:29:45.539Z,9.73
2023-03-17T15:33:29.974Z,9.62
2023-03-17T15:36:33.445Z,9.67
2023-03-17T15:39:36.358Z,9.56
2023-03-17T15:42:40.388Z,9.49
2023-03-17T15:45:45.381Z,9.33
2023-03-17T15:48:53.496Z,9.40
2023-03-17T15:51:56.306Z,9.13
2023-03-17T15:54:59.840Z,9.10
2023-03-17T15:58:02.699Z,9.03
2023-03-17T16:01:06.618Z,9.08
2023-03-17T16:04:12.787Z,9.14
2023-03-17T16:07:15.715Z,8.99
2023-03-17T16:10:25.297Z,9.03
2023-03-17T16:13:28.170Z,8.82
2023-03-17T16:16:39.747Z,8.77
2023-03-17T16:19:46.195Z,8.72
2023-03-17T16:22:50.179Z,8.60
2023-03-17T16:25:59.345Z,8.45
2023-03-17T16:29:14.522Z,8.35
2023-03-17T16:32:17.557Z,8.25
2023-03-17T16:35:23.040Z,8.18
2023-03-17T16:38:32.054Z,7.86
2023-03-17T16:41:35.685Z,8.09
2023-03-17T16:44:38.509Z,7.70
2023-03-17T16:47:41.720Z,7.43
2023-03-17T16:50:44.645Z,7.42
2023-03-17T16:53:47.942Z,7.11
2023-03-17T16:56:51.031Z,6.93
2023-03-17T16:59:58.399Z,6.75
2023-03-17T17:03:21.624Z,6.54
2023-03-17T17:06:44.699Z,6.22
2023-03-17T17:09:57.159Z,5.89
2023-03-17T17:13:02.368Z,5.63
2023-03-17T17:16:06.348Z,5.45
2023-03-17T17:19:16.681Z,5.24
2023-03-17T17:22:36.698Z,4.92
2023-03-17T17:25:56.948Z,4.45
2023-03-17T17:29:40.550Z,3.87
2023-03-17T17:32:45.393Z,4.03
2023-03-17T17:35:53.402Z,3.94
2023-03-17T17:38:56.845Z,3.75
2023-03-17T17:41:59.603Z,3.70
2023-03-17T17:45:03.695Z,3.96
2023-03-17T17:48:27.978Z,3.75
2023-03-17T17:51:32.823Z,3.31
2023-03-17T17:54:40.645Z,3.29
2023-03-17T17:58:05.524Z,3.07
2023-03-17T18:01:09.050Z,2.90
2023-03-17T18:04:12.916Z,2.79
2023-03-17T18:07:15.791Z,2.73
2023-03-17T18:10:24.147Z,2.65
2023-03-17T18:13:30.666Z,2.54
2023-03-17T18:16:37.944Z,2.36
2023-03-17T18:19:42.464Z,2.34
2023-03-17T18:22:46.319Z,2.26
2023-03-17T18:25:49.848Z,2.30
2023-03-17T18:28:53.788Z,2.13
2023-03-17T18:32:37.441Z,1.89
2023-03-17T18:36:01.574Z,2.04
2023-03-17T18:39:08.464Z,2.09
2023-03-17T18:42:33.125Z,1.85
2023-03-17T18:45:35.917Z,1.84
2023-03-17T18:48:40.249Z,1.88
2023-03-17T18:51:43.075Z,1.83
2023-03-17T18:54:46.894Z,1.82
2023-03-17T18:57:49.975Z,1.80
2023-03-17T19:01:01.607Z,1.82
2023-03-17T19:04:05.860Z,1.68
2023-03-17T19:07:09.002Z,1.65
2023-03-17T19:10:18.354Z,1.67
2023-03-17T19:13:21.455Z,1.70
2023-03-17T19:16:45.079Z,1.64
2023-03-17T19:19:50.473Z,1.52
2023-03-17T19:22:56.958Z,1.60
2023-03-17T19:26:00.611Z,1.54
2023-03-17T19:29:23.468Z,1.50
2023-03-17T19:32:27.729Z,1.50
2023-03-17T19:35:57.077Z,1.45
2023-03-17T19:39:21.925Z,1.47
2023-03-17T19:42:24.794Z,1.50
2023-03-17T19:45:52.283Z,1.53
2023-03-17T19:49:04.894Z,1.47
2023-03-17T19:52:09.670Z,1.64
2023-03-17T19:55:16.025Z,1.54
2023-03-17T19:58:23.607Z,1.53
2023-03-17T20:01:29.227Z,1.56
2023-03-17T20:04:33.092Z,1.47
2023-03-17T20:07:36.067Z,1.31
2023-03-17T20:10:40.706Z,1.19
2023-03-17T20:13:47.460Z,1.23
2023-03-17T20:16:50.769Z,1.23
2023-03-17T20:19:55.907Z,1.23
2023-03-17T20:23:24.977Z,1.19
2023-03-17T20:26:28.751Z,1.26
2023-03-17T20:29:31.963Z,1.09
2023-03-17T20:32:35.678Z,1.02
2023-03-17T20:35:40.761Z,0.89
2023-03-17T20:38:44.468Z,0.71
2023-03-17T20:41:49.459Z,0.81
2023-03-17T20:44:53.140Z,0.80
2023-03-17T20:47:56.364Z,0.88
2023-03-17T20:51:00.375Z,0.92
2023-03-17T20:54:05.192Z,1.00
2023-03-17T20:57:11.689Z,1.20
2023-03-17T21:00:20.175Z,1.29
2023-03-17T21:03:22.962Z,1.41
2023-03-17T21:06:28.355Z,1.34
2023-03-17T21:09:31.125Z,1.20
2023-03-17T21:12:35.408Z,1.33
2023-03-17T21:15:38.183Z,1.29
2023-03-17T21:18:41.229Z,1.28
2023-03-17T21:22:04.643Z,1.02
2023-03-17T21:25:09.829Z,0.93
2023-03-17T21:28:13.767Z,1.07
2023-03-17T21:31:17.411Z,1.13
2023-03-17T21:34:25.426Z,1.07
2023-03-17T21:37:32.385Z,1.03
2023-03-17T21:40:35.730Z,0.96
2023-03-17T21:43:39.246Z,0.77
2023-03-17T21:46:45.147Z,0.80
2023-03-17T21:49:52.693Z,0.62
2023-03-17T21:52:55.409Z,0.84
2023-03-17T21:55:59.636Z,0.93
2023-03-17T21:59:23.669Z,1.05
2023-03-17T22:02:59.728Z,0.79
2023-03-17T22:06:05.643Z,0.52
2023-03-17T22:09:11.078Z,0.22
2023-03-17T22:12:14.503Z,0.14
2023-03-17T22:15:17.789Z,-0.03
2023-03-17T22:18:22.062Z,0.36
2023-03-17T22:21:29.028Z,0.26
2023-03-17T22:24:32.533Z,0.07
2023-03-17T22:27:55.858Z,-0.34
